createdAt,value
2019-02-02T00:00:02.231Z,975.24
2019-02-02T00:05:01.557Z,975.28
2019-02-02T00:10:01.977Z,975.25
2019-02-02T00:15:02.218Z,975.25
2019-02-02T00:20:01.553Z,975.26
2019-02-02T00:25:01.786Z,975.16
2019-02-02T00:30:02.139Z,975.24
2019-02-02T00:35:01.479Z,975.25
2019-02-02T00:40:01.802Z,975.2
2019-02-02T00:45:02.062Z,975.2
2019-02-02T00:50:01.342Z,975.3
2019-02-02T00:55:01.608Z,975.28
2019-02-02T01:00:01.885Z,975.33
2019-02-02T01:05:02.119Z,975.37
2019-02-02T01:10:01.397Z,975.38
2019-02-02T01:15:01.623Z,975.36
2019-02-02T01:20:01.911Z,975.4
2019-02-02T01:25:02.146Z,975.4
2019-02-02T01:30:01.408Z,975.41
2019-02-02T01:35:01.694Z,975.38
2019-02-02T01:40:02.142Z,975.44
2019-02-02T01:45:01.436Z,975.51
2019-02-02T01:50:01.740Z,975.54
2019-02-02T01:55:01.966Z,975.53
2019-02-02T02:00:02.264Z,975.56
2019-02-02T02:05:01.754Z,975.61
2019-02-02T02:10:02.084Z,975.64
2019-02-02T02:15:01.401Z,975.66
2019-02-02T02:20:01.732Z,975.64
2019-02-02T02:25:02.014Z,975.64
2019-02-02T02:30:01.576Z,975.69
2019-02-02T02:35:01.968Z,975.73
2019-02-02T02:40:02.259Z,975.73
2019-02-02T02:45:01.574Z,975.84
2019-02-02T02:50:01.871Z,975.94
2019-02-02T02:55:02.187Z,975.93
2019-02-02T03:00:01.501Z,975.97
2019-02-02T03:05:01.841Z,975.94
2019-02-02T03:10:02.109Z,975.93
2019-02-02T03:15:01.563Z,975.83
2019-02-02T03:20:01.872Z,975.88
2019-02-02T03:25:02.135Z,975.85
2019-02-02T03:30:01.407Z,975.89
2019-02-02T03:35:01.766Z,975.87
2019-02-02T03:40:01.635Z,975.95
2019-02-02T03:45:01.926Z,976.02
2019-02-02T03:50:02.188Z,975.99
2019-02-02T03:55:01.555Z,976.05
2019-02-02T04:00:02.176Z,976.13
2019-02-02T04:05:01.495Z,976.14
2019-02-02T04:10:01.904Z,976.11
2019-02-02T04:15:01.262Z,976.03
2019-02-02T04:20:01.612Z,976.07
2019-02-02T04:25:01.894Z,976.15
2019-02-02T04:30:02.157Z,976.17
2019-02-02T04:35:01.449Z,976.23
2019-02-02T04:40:01.763Z,976.23
2019-02-02T04:45:02.029Z,976.23
2019-02-02T04:50:01.319Z,976.3
2019-02-02T04:55:01.617Z,976.34
2019-02-02T05:00:01.902Z,976.46
2019-02-02T05:05:02.156Z,976.44
2019-02-02T05:10:01.438Z,976.43
2019-02-02T05:15:01.725Z,976.47
2019-02-02T05:20:02.015Z,976.5
2019-02-02T05:25:01.263Z,976.54
2019-02-02T05:30:01.536Z,976.6
2019-02-02T05:35:02.025Z,976.53
2019-02-02T05:40:01.884Z,976.54
2019-02-02T05:45:02.131Z,976.6
2019-02-02T05:50:01.414Z,976.58
2019-02-02T05:55:01.845Z,976.64
2019-02-02T06:00:02.116Z,976.66
2019-02-02T06:05:01.424Z,976.76
2019-02-02T06:10:01.697Z,976.78
2019-02-02T06:15:01.963Z,976.88
2019-02-02T06:20:02.219Z,976.89
2019-02-02T06:25:01.459Z,976.93
2019-02-02T06:30:05.122Z,976.96
2019-02-02T06:35:01.426Z,977.03
2019-02-02T06:40:01.732Z,977.02
2019-02-02T06:45:02.003Z,977.35
2019-02-02T06:50:01.318Z,977.37
2019-02-02T06:55:01.574Z,977.36
2019-02-02T07:00:01.881Z,977.53
2019-02-02T07:05:02.168Z,977.61
2019-02-02T07:10:01.592Z,977.67
2019-02-02T07:15:01.906Z,977.69
2019-02-02T07:20:02.194Z,977.7
2019-02-02T07:25:01.467Z,977.84
2019-02-02T07:30:01.778Z,977.83
2019-02-02T07:35:02.114Z,977.9
2019-02-02T07:40:01.405Z,977.93
2019-02-02T07:45:01.676Z,978.02
2019-02-02T07:50:01.964Z,978.15
2019-02-02T07:55:02.207Z,978.13
2019-02-02T08:00:01.486Z,978.15
2019-02-02T08:05:01.741Z,978.22
2019-02-02T08:10:02.025Z,978.28
2019-02-02T08:15:01.328Z,978.43
2019-02-02T08:20:01.616Z,978.48
2019-02-02T08:25:01.872Z,978.45
2019-02-02T08:30:02.145Z,978.53
2019-02-02T08:35:01.435Z,978.66
2019-02-02T08:40:01.763Z,978.66
2019-02-02T08:45:02.060Z,978.75
2019-02-02T08:50:01.388Z,978.8
2019-02-02T08:55:01.697Z,978.94
2019-02-02T09:00:01.989Z,978.97
2019-02-02T09:05:01.440Z,979.08
2019-02-02T09:10:01.804Z,979.08
2019-02-02T09:15:02.054Z,979.15
2019-02-02T09:20:01.355Z,979.24
2019-02-02T09:25:01.613Z,979.23
2019-02-02T09:30:01.912Z,979.22
2019-02-02T09:35:02.209Z,979.14
2019-02-02T09:40:01.487Z,979.24
2019-02-02T09:45:01.759Z,979.28
2019-02-02T09:50:02.036Z,979.32
2019-02-02T09:55:01.309Z,979.42
2019-02-02T10:00:01.600Z,979.45
2019-02-02T10:05:01.843Z,979.54
2019-02-02T10:10:02.229Z,979.55
2019-02-02T10:15:01.514Z,979.66
2019-02-02T10:20:01.877Z,979.75
2019-02-02T10:25:02.172Z,979.77
2019-02-02T10:30:01.439Z,979.82
2019-02-02T10:35:01.695Z,979.88
2019-02-02T10:40:01.979Z,979.9
2019-02-02T10:45:01.303Z,979.95
2019-02-02T10:50:01.575Z,979.94
2019-02-02T10:55:01.849Z,980.02
2019-02-02T11:00:02.201Z,980.06
2019-02-02T11:05:01.696Z,980.17
2019-02-02T11:10:02.271Z,980.22
2019-02-02T11:15:02.098Z,980.27
2019-02-02T11:20:01.697Z,980.39
2019-02-02T11:25:02.280Z,980.4
2019-02-02T11:30:01.798Z,980.53
2019-02-02T11:35:02.090Z,980.61
2019-02-02T11:40:01.454Z,980.66
2019-02-02T11:45:01.748Z,980.71
2019-02-02T11:50:02.029Z,980.79
2019-02-02T11:55:01.316Z,980.91
2019-02-02T12:00:01.566Z,980.99
2019-02-02T12:05:01.907Z,981.14
2019-02-02T12:10:02.190Z,981.22
2019-02-02T12:15:01.534Z,981.19
2019-02-02T12:20:01.858Z,981.19
2019-02-02T12:25:02.636Z,981.22
2019-02-02T12:30:01.957Z,981.31
2019-02-02T12:35:05.057Z,981.38
2019-02-02T12:40:01.349Z,981.45
2019-02-02T12:45:01.633Z,981.54
2019-02-02T12:50:01.906Z,981.51
2019-02-02T12:55:02.162Z,981.53
2019-02-02T13:00:01.441Z,981.58
2019-02-02T13:05:01.746Z,981.56
2019-02-02T13:10:02.031Z,981.61
2019-02-02T13:15:01.313Z,981.67
2019-02-02T13:20:01.572Z,981.82
2019-02-02T13:25:01.857Z,982.07
2019-02-02T13:30:02.142Z,981.92
2019-02-02T13:35:01.452Z,981.96
2019-02-02T13:40:03.944Z,982.12
2019-02-02T13:45:02.196Z,982.23
2019-02-02T13:50:01.598Z,982.24
2019-02-02T13:55:01.953Z,982.25
2019-02-02T14:00:02.199Z,982.25
2019-02-02T14:05:01.613Z,982.35
2019-02-02T14:10:01.904Z,982.46
2019-02-02T14:15:02.343Z,982.51
2019-02-02T14:20:01.687Z,982.57
2019-02-02T14:25:02.007Z,982.61
2019-02-02T14:30:01.338Z,982.65
2019-02-02T14:35:01.633Z,982.8
2019-02-02T14:40:01.952Z,982.87
2019-02-02T14:45:02.237Z,983.01
2019-02-02T14:50:01.545Z,982.99
2019-02-02T14:55:02.162Z,983.1
2019-02-02T15:00:01.457Z,983.22
2019-02-02T15:05:01.750Z,983.4
2019-02-02T15:10:02.037Z,983.49
2019-02-02T15:15:01.324Z,983.55
2019-02-02T15:20:01.639Z,983.64
2019-02-02T15:25:01.931Z,983.71
2019-02-02T15:30:02.173Z,983.85
2019-02-02T15:35:01.466Z,983.95
2019-02-02T15:40:01.745Z,984.01
2019-02-02T15:45:02.038Z,984.16
2019-02-02T15:50:01.328Z,984.25
2019-02-02T15:55:01.620Z,984.35
2019-02-02T16:00:01.907Z,984.44
2019-02-02T16:05:04.751Z,984.55
2019-02-02T16:10:02.013Z,984.65
2019-02-02T16:15:01.301Z,984.81
2019-02-02T16:20:01.589Z,984.9
2019-02-02T16:25:01.851Z,985.09
2019-02-02T16:30:02.094Z,985.26
2019-02-02T16:35:01.357Z,985.33
2019-02-02T16:40:01.784Z,985.43
2019-02-02T16:45:02.059Z,985.55
2019-02-02T16:50:01.397Z,985.67
2019-02-02T16:55:01.671Z,985.79
2019-02-02T17:00:01.949Z,985.8
2019-02-02T17:05:02.206Z,985.97
2019-02-02T17:10:01.488Z,986.06
2019-02-02T17:15:01.744Z,986.11
2019-02-02T17:20:02.026Z,986.04
2019-02-02T17:25:01.337Z,986.15
2019-02-02T17:30:01.831Z,986.31
2019-02-02T17:35:02.131Z,986.39
2019-02-02T17:40:01.468Z,986.5
2019-02-02T17:45:01.831Z,986.64
2019-02-02T17:50:02.098Z,986.64
2019-02-02T17:55:01.418Z,986.72
2019-02-02T18:00:01.719Z,986.86
2019-02-02T18:05:01.992Z,986.91
2019-02-02T18:10:02.207Z,986.99
2019-02-02T18:15:01.477Z,987.12
2019-02-02T18:20:01.762Z,987.3
2019-02-02T18:25:02.018Z,987.4
2019-02-02T18:30:01.311Z,987.46
2019-02-02T18:35:01.613Z,987.55
2019-02-02T18:40:01.906Z,987.66
2019-02-02T18:45:02.184Z,987.8
2019-02-02T18:50:01.477Z,987.84
2019-02-02T18:55:01.741Z,987.84
2019-02-02T19:00:02.014Z,987.99
2019-02-02T19:05:04.591Z,987.99
2019-02-02T19:10:01.863Z,988.03
2019-02-02T19:15:02.126Z,988.19
2019-02-02T19:20:01.425Z,988.3
2019-02-02T19:25:01.684Z,988.36
2019-02-02T19:30:02.115Z,988.4
2019-02-02T19:35:01.409Z,988.49
2019-02-02T19:40:01.690Z,988.61
2019-02-02T19:45:01.994Z,988.71
2019-02-02T19:50:01.282Z,988.78
2019-02-02T19:55:01.557Z,988.88
2019-02-02T20:00:03.304Z,989.04
2019-02-02T20:05:01.631Z,989.12
2019-02-02T20:10:02.105Z,989.18
2019-02-02T20:15:01.404Z,989.26
2019-02-02T20:20:01.725Z,989.4
2019-02-02T20:25:01.951Z,989.58
2019-02-02T20:30:02.181Z,989.68
2019-02-02T20:35:01.463Z,989.75
2019-02-02T20:40:01.774Z,989.87
2019-02-02T20:45:02.038Z,990.06
2019-02-02T20:50:01.310Z,990.14
2019-02-02T20:55:01.736Z,990.26
2019-02-02T21:00:02.042Z,990.4
2019-02-02T21:05:01.487Z,990.48
2019-02-02T21:10:01.780Z,990.51
2019-02-02T21:15:02.233Z,990.56
2019-02-02T21:20:01.539Z,990.67
2019-02-02T21:25:01.854Z,990.71
2019-02-02T21:30:02.120Z,990.84
2019-02-02T21:35:01.479Z,990.9
2019-02-02T21:40:01.856Z,990.91
2019-02-02T21:45:02.121Z,991.04
2019-02-02T21:50:01.599Z,991.24
2019-02-02T21:55:01.914Z,991.4
2019-02-02T22:00:02.179Z,991.55
2019-02-02T22:05:01.497Z,991.66
2019-02-02T22:10:01.804Z,991.71
2019-02-02T22:15:02.607Z,991.91
2019-02-02T22:20:02.143Z,992.01
2019-02-02T22:25:01.444Z,992.13
2019-02-02T22:30:01.757Z,992.21
2019-02-02T22:35:02.090Z,992.4
2019-02-02T22:40:02.254Z,992.56
2019-02-02T22:45:01.802Z,992.56
2019-02-02T22:50:02.100Z,992.74
2019-02-02T22:55:01.399Z,992.9
2019-02-02T23:00:01.700Z,992.99
2019-02-02T23:05:02.662Z,993.09
2019-02-02T23:10:01.312Z,993.09
2019-02-02T23:15:01.611Z,993.11
2019-02-02T23:20:01.936Z,993.16
2019-02-02T23:25:02.216Z,993.29
2019-02-02T23:30:01.973Z,993.29
2019-02-02T23:35:01.477Z,993.42
2019-02-02T23:40:01.777Z,993.53
2019-02-02T23:45:02.094Z,993.54
2019-02-02T23:50:01.384Z,993.58
2019-02-02T23:55:01.688Z,993.67
